Time;durP1;ratioP1;P1;durP2;ratioP2;P2;SDS_P1;SDS_P2;PMS_P1;PMS_P2;Temp;Humidity;BMP_temperature;BMP_pressure;BME280_temperature;BME280_humidity;BME280_pressure;Samples;Min_cycle;Max_cycle;Signal;HPM_P1;HPM_P2
2023/08/07 00:00:41;;;;;;;0.10;0.10;;;15.10;99.90;;;;;;5044573;28;20453;-84
2023/08/07 00:03:07;;;;;;;0.10;0.10;;;15.10;99.90;;;;;;5029817;28;20549;-84
2023/08/07 00:05:32;;;;;;;0.10;0.10;;;15.10;99.90;;;;;;5051230;28;20175;-84
2023/08/07 00:07:57;;;;;;;0.10;0.10;;;15.10;99.90;;;;;;5034808;28;20601;-84
2023/08/07 00:10:24;;;;;;;0.10;0.10;;;15.00;99.90;;;;;;5031136;28;20263;-84
2023/08/07 00:12:49;;;;;;;0.10;0.10;;;15.00;99.90;;;;;;5046583;28;20175;-84
2023/08/07 00:15:15;;;;;;;0.10;0.10;;;15.00;99.90;;;;;;5036693;28;20932;-85
2023/08/07 00:17:41;;;;;;;0.10;0.10;;;15.00;99.90;;;;;;5032637;28;20183;-84
2023/08/07 00:20:07;;;;;;;0.10;0.10;;;15.00;99.90;;;;;;5038191;28;20171;-84
2023/08/07 00:22:33;;;;;;;0.10;0.10;;;14.90;99.90;;;;;;5045825;28;20218;-84
2023/08/07 00:24:58;;;;;;;0.10;0.10;;;14.90;99.90;;;;;;5047459;28;20475;-85
2023/08/07 00:27:24;;;;;;;0.10;0.10;;;14.80;99.90;;;;;;5043049;28;20191;-84
2023/08/07 00:29:49;;;;;;;0.10;0.10;;;14.90;99.90;;;;;;5047823;28;20218;-84
2023/08/07 00:32:15;;;;;;;0.10;0.10;;;15.00;99.90;;;;;;5039831;28;20183;-84
2023/08/07 00:34:40;;;;;;;0.10;0.10;;;14.90;99.90;;;;;;5049082;28;20265;-84
2023/08/07 00:37:06;;;;;;;0.10;0.10;;;14.90;99.90;;;;;;5049459;28;20190;-84
2023/08/07 00:39:31;;;;;;;0.10;0.10;;;15.00;99.90;;;;;;5049434;28;20187;-84
2023/08/07 00:41:57;;;;;;;0.10;0.10;;;14.90;99.90;;;;;;5050324;28;20175;-83
2023/08/07 00:44:25;;;;;;;0.10;0.10;;;14.90;99.90;;;;;;5050293;28;20174;-85
2023/08/07 00:46:51;;;;;;;0.10;0.10;;;14.90;99.90;;;;;;5046150;28;20178;-84
2023/08/07 00:49:18;;;;;;;0.10;0.10;;;14.90;99.90;;;;;;5035635;28;20688;-84
2023/08/07 00:51:44;;;;;;;0.10;0.10;;;14.90;99.90;;;;;;5042801;28;20281;-85
2023/08/07 00:54:11;;;;;;;0.10;0.10;;;14.80;99.90;;;;;;5050282;28;20504;-83
2023/08/07 00:56:37;;;;;;;0.10;0.10;;;14.80;99.90;;;;;;5045792;28;20299;-84
2023/08/07 00:59:03;;;;;;;0.10;0.10;;;14.80;99.90;;;;;;5030030;28;20888;-83
2023/08/07 01:01:29;;;;;;;0.10;0.10;;;14.80;99.90;;;;;;5042058;28;20213;-85
2023/08/07 01:03:54;;;;;;;0.10;0.10;;;14.80;99.90;;;;;;5049974;28;20424;-84
2023/08/07 01:06:20;;;;;;;0.10;0.10;;;14.80;99.90;;;;;;5060704;28;20987;-83
2023/08/07 01:08:47;;;;;;;0.10;0.10;;;14.80;99.90;;;;;;5043531;28;20289;-84
2023/08/07 01:11:47;;;;;;;0.10;0.10;;;14.80;99.90;;;;;;5037340;28;20195;-84
2023/08/07 01:14:28;;;;;;;0.10;0.10;;;14.80;99.90;;;;;;5037812;28;20543;-84
2023/08/07 01:17:06;;;;;;;0.10;0.10;;;14.70;99.90;;;;;;5040015;28;20449;-84
2023/08/07 01:19:33;;;;;;;0.10;0.10;;;14.80;99.90;;;;;;5030302;28;20450;-84
2023/08/07 01:22:08;;;;;;;0.10;0.10;;;14.70;99.90;;;;;;5043210;28;20457;-84
2023/08/07 01:24:35;;;;;;;0.10;0.10;;;14.70;99.90;;;;;;5036049;28;20445;-85
2023/08/07 01:27:19;;;;;;;0.10;0.10;;;14.80;99.90;;;;;;5055237;28;20958;-84
2023/08/07 01:30:06;;;;;;;0.10;0.10;;;14.70;99.90;;;;;;5031419;28;20520;-84
2023/08/07 01:32:49;;;;;;;0.10;0.10;;;14.70;99.90;;;;;;5039756;28;20996;-84
2023/08/07 01:35:16;;;;;;;0.10;0.10;;;14.80;99.90;;;;;;5046942;28;21014;-84
2023/08/07 01:37:44;;;;;;;0.10;0.10;;;14.70;99.90;;;;;;5037114;28;20472;-83
2023/08/07 01:40:12;;;;;;;0.10;0.10;;;14.70;99.90;;;;;;5035338;28;20446;-83
2023/08/07 01:42:38;;;;;;;0.10;0.10;;;14.70;99.90;;;;;;5043793;28;20460;-84
2023/08/07 01:45:05;;;;;;;0.10;0.10;;;14.70;99.90;;;;;;5040940;28;20448;-84
2023/08/07 01:47:30;;;;;;;0.10;0.10;;;14.80;99.90;;;;;;5038040;28;20580;-84
2023/08/07 01:49:56;;;;;;;0.10;0.10;;;14.80;99.90;;;;;;5052532;28;21063;-85
2023/08/07 01:52:21;;;;;;;0.10;0.10;;;14.70;99.90;;;;;;5083882;28;20183;-84
2023/08/07 01:54:48;;;;;;;0.10;0.10;;;14.70;99.90;;;;;;5053322;28;20194;-84
2023/08/07 01:57:13;;;;;;;0.10;0.10;;;14.70;99.90;;;;;;5043000;28;20183;-85
2023/08/07 01:59:39;;;;;;;0.10;0.10;;;14.60;99.90;;;;;;5041104;28;20949;-84
2023/08/07 02:02:04;;;;;;;0.10;0.10;;;14.60;99.90;;;;;;5045562;28;20274;-84
2023/08/07 02:04:30;;;;;;;0.10;0.10;;;14.60;99.90;;;;;;5033183;28;20636;-84
2023/08/07 02:06:55;;;;;;;0.10;0.10;;;14.70;99.90;;;;;;5033002;28;20203;-84
2023/08/07 02:09:22;;;;;;;0.10;0.10;;;14.60;99.90;;;;;;5031902;28;20207;-84
2023/08/07 02:11:47;;;;;;;0.10;0.10;;;14.60;99.90;;;;;;5065060;28;20175;-84
2023/08/07 02:14:13;;;;;;;0.10;0.10;;;14.60;99.90;;;;;;5032004;28;20451;-84
2023/08/07 02:16:39;;;;;;;0.10;0.10;;;14.60;99.90;;;;;;5038527;28;20538;-84
2023/08/07 02:19:04;;;;;;;0.10;0.10;;;14.60;99.90;;;;;;5052972;28;20194;-85
2023/08/07 02:21:30;;;;;;;0.10;0.10;;;14.60;99.90;;;;;;5051012;28;20194;-84
2023/08/07 02:23:55;;;;;;;0.10;0.10;;;14.60;99.90;;;;;;5084895;28;20209;-84
2023/08/07 02:26:21;;;;;;;0.10;0.10;;;14.50;99.90;;;;;;5049904;28;20193;-84
2023/08/07 02:28:46;;;;;;;0.10;0.10;;;14.60;99.90;;;;;;5082389;28;20183;-84
2023/08/07 02:31:12;;;;;;;0.10;0.10;;;14.60;99.90;;;;;;5040840;28;21024;-84
2023/08/07 02:33:37;;;;;;;0.10;0.10;;;14.50;99.90;;;;;;5032840;28;20176;-85
2023/08/07 02:36:03;;;;;;;0.10;0.10;;;14.50;99.90;;;;;;5037045;28;20306;-85
2023/08/07 02:38:28;;;;;;;0.10;0.10;;;14.60;99.90;;;;;;5048631;28;20642;-85
2023/08/07 02:40:54;;;;;;;0.10;0.10;;;14.60;99.90;;;;;;5046319;28;20191;-84
2023/08/07 02:43:19;;;;;;;0.10;0.10;;;14.60;99.90;;;;;;5038963;28;20191;-84
2023/08/07 02:45:45;;;;;;;0.10;0.10;;;14.60;99.90;;;;;;5049034;28;20190;-85
2023/08/07 02:48:10;;;;;;;0.10;0.10;;;14.60;99.90;;;;;;5048796;28;20245;-84
2023/08/07 02:50:36;;;;;;;0.10;0.10;;;14.60;99.90;;;;;;5038893;28;20269;-84
2023/08/07 02:53:02;;;;;;;0.10;0.10;;;14.50;99.90;;;;;;5046552;28;20194;-84
2023/08/07 02:55:27;;;;;;;0.10;0.10;;;14.60;99.90;;;;;;5047037;28;20194;-84
2023/08/07 02:57:53;;;;;;;0.10;0.10;;;14.50;99.90;;;;;;5043938;28;20457;-84
2023/08/07 03:00:19;;;;;;;0.10;0.10;;;14.50;99.90;;;;;;5046010;28;20670;-84
2023/08/07 03:02:44;;;;;;;0.10;0.10;;;14.60;99.90;;;;;;5066282;28;20218;-84
2023/08/07 03:05:10;;;;;;;0.10;0.10;;;14.60;99.90;;;;;;5037483;28;20187;-84
2023/08/07 03:07:35;;;;;;;0.10;0.10;;;14.60;99.90;;;;;;5069634;28;20564;-84
2023/08/07 03:10:01;;;;;;;0.10;0.10;;;14.60;99.90;;;;;;5037289;28;20826;-84
2023/08/07 03:12:26;;;;;;;0.10;0.10;;;14.60;99.90;;;;;;5031271;28;20612;-84
2023/08/07 03:14:52;;;;;;;0.10;0.10;;;14.60;99.90;;;;;;5031884;28;20964;-83
2023/08/07 03:17:18;;;;;;;0.10;0.10;;;14.50;99.90;;;;;;5080919;28;20182;-83
2023/08/07 03:19:43;;;;;;;0.10;0.10;;;14.50;99.90;;;;;;5051582;28;20638;-83
2023/08/07 03:22:09;;;;;;;0.10;0.10;;;14.60;99.90;;;;;;5049117;28;20183;-84
2023/08/07 03:24:35;;;;;;;0.10;0.10;;;14.50;99.90;;;;;;5050491;28;20182;-84
2023/08/07 03:27:00;;;;;;;0.10;0.10;;;14.50;99.90;;;;;;5049408;28;20440;-84
2023/08/07 03:29:26;;;;;;;0.10;0.10;;;14.50;99.90;;;;;;5084150;28;20217;-84
2023/08/07 03:31:52;;;;;;;0.10;0.10;;;14.60;99.90;;;;;;5034780;28;20533;-83
2023/08/07 03:34:17;;;;;;;0.10;0.10;;;14.50;99.90;;;;;;5031594;28;20183;-84
2023/08/07 03:36:43;;;;;;;0.10;0.10;;;14.60;99.90;;;;;;5045445;28;20658;-84
2023/08/07 03:39:10;;;;;;;0.10;0.10;;;14.50;99.90;;;;;;5053802;28;20560;-84
2023/08/07 03:41:35;;;;;;;0.10;0.10;;;14.50;99.90;;;;;;5050434;28;20195;-85
2023/08/07 03:44:01;;;;;;;0.10;0.10;;;14.40;99.90;;;;;;5056314;28;20506;-84
2023/08/07 03:46:26;;;;;;;0.10;0.10;;;14.50;99.90;;;;;;5039559;28;20242;-83
2023/08/07 03:48:52;;;;;;;0.10;0.10;;;14.50;99.90;;;;;;5032250;28;20629;-84
2023/08/07 03:51:18;;;;;;;0.10;0.10;;;14.50;99.90;;;;;;5033952;28;20195;-84
2023/08/07 03:53:43;;;;;;;0.10;0.10;;;14.50;99.90;;;;;;5031377;28;20702;-83
2023/08/07 03:56:09;;;;;;;0.10;0.10;;;14.50;99.90;;;;;;5035471;28;20823;-81
2023/08/07 03:58:34;;;;;;;0.10;0.10;;;14.50;99.90;;;;;;5032055;28;20636;-84
2023/08/07 04:01:00;;;;;;;0.10;0.10;;;14.50;99.90;;;;;;5038825;28;21781;-84
2023/08/07 04:03:25;;;;;;;0.10;0.10;;;14.50;99.90;;;;;;5083439;28;20292;-84
2023/08/07 04:05:53;;;;;;;0.10;0.10;;;14.60;99.90;;;;;;5040403;28;20203;-83
2023/08/07 04:08:19;;;;;;;0.10;0.10;;;14.60;99.90;;;;;;5046706;28;20213;-84
2023/08/07 04:10:44;;;;;;;0.10;0.10;;;14.60;99.90;;;;;;5050008;28;20524;-84
2023/08/07 04:13:10;;;;;;;0.10;0.10;;;14.60;99.90;;;;;;5041809;28;20193;-84
2023/08/07 04:15:35;;;;;;;0.10;0.10;;;14.50;99.90;;;;;;5046146;28;20240;-84
2023/08/07 04:18:01;;;;;;;0.10;0.10;;;14.60;99.90;;;;;;5049995;28;20190;-83
2023/08/07 04:20:26;;;;;;;0.10;0.10;;;14.60;99.90;;;;;;5049329;28;20185;-84
2023/08/07 04:22:52;;;;;;;0.10;0.10;;;14.60;99.90;;;;;;5048739;28;20198;-84
2023/08/07 04:25:17;;;;;;;0.10;0.10;;;14.60;99.90;;;;;;5046653;28;20193;-84
2023/08/07 04:27:43;;;;;;;0.10;0.10;;;14.60;99.90;;;;;;5043386;28;20192;-84
2023/08/07 04:30:09;;;;;;;0.10;0.10;;;14.60;99.90;;;;;;5036515;28;20229;-83
2023/08/07 04:32:34;;;;;;;0.10;0.10;;;14.70;99.90;;;;;;5081191;28;20179;-84
2023/08/07 04:35:00;;;;;;;0.10;0.10;;;14.60;99.90;;;;;;5077030;28;20797;-83
2023/08/07 04:37:25;;;;;;;0.10;0.10;;;14.60;99.90;;;;;;5031808;28;20230;-83
2023/08/07 04:39:51;;;;;;;0.10;0.10;;;14.60;99.90;;;;;;5035325;28;20195;-83
2023/08/07 04:42:17;;;;;;;0.10;0.10;;;14.60;99.90;;;;;;5072597;28;20183;-84
2023/08/07 04:44:42;;;;;;;0.10;0.10;;;14.70;99.90;;;;;;5045885;28;20453;-83
2023/08/07 04:47:08;;;;;;;0.10;0.10;;;14.70;99.90;;;;;;5047075;28;20190;-83
2023/08/07 04:49:33;;;;;;;0.10;0.10;;;14.70;99.90;;;;;;5064838;28;20292;-83
2023/08/07 04:51:59;;;;;;;0.10;0.10;;;14.70;99.90;;;;;;5049666;28;20190;-84
2023/08/07 04:54:24;;;;;;;0.10;0.10;;;14.70;99.90;;;;;;5049611;28;20186;-83
2023/08/07 04:56:50;;;;;;;0.10;0.10;;;14.80;99.90;;;;;;5052375;28;20198;-84
2023/08/07 04:59:15;;;;;;;0.10;0.10;;;14.90;99.90;;;;;;5049354;28;20202;-84
2023/08/07 05:01:41;;;;;;;0.10;0.10;;;14.90;99.90;;;;;;5040823;28;20667;-82
2023/08/07 05:04:07;;;;;;;0.10;0.10;;;14.80;99.90;;;;;;5042361;28;20654;-83
2023/08/07 05:06:32;;;;;;;0.10;0.10;;;14.80;99.90;;;;;;5043349;28;20426;-83
2023/08/07 05:08:58;;;;;;;0.10;0.10;;;14.90;99.90;;;;;;5048629;28;20232;-84
2023/08/07 05:11:23;;;;;;;0.10;0.10;;;14.90;99.90;;;;;;5035480;28;20271;-84
2023/08/07 05:13:49;;;;;;;0.10;0.10;;;14.90;99.90;;;;;;5045625;28;20646;-83
2023/08/07 05:16:14;;;;;;;0.10;0.10;;;14.90;99.90;;;;;;5039954;28;20183;-84
2023/08/07 05:18:40;;;;;;;0.10;0.10;;;14.90;99.90;;;;;;5049491;28;20189;-85
2023/08/07 05:21:08;;;;;;;0.10;0.10;;;15.00;99.90;;;;;;5033653;28;20206;-84
2023/08/07 05:23:34;;;;;;;0.10;0.10;;;15.10;99.90;;;;;;5036473;28;20187;-84
2023/08/07 05:25:59;;;;;;;0.10;0.10;;;15.10;99.90;;;;;;5030328;28;20423;-84
2023/08/07 05:28:25;;;;;;;0.10;0.10;;;15.20;99.90;;;;;;5032835;28;20250;-84
2023/08/07 05:30:50;;;;;;;0.10;0.10;;;15.20;99.90;;;;;;5044383;28;20230;-85
2023/08/07 05:33:16;;;;;;;0.10;0.10;;;15.20;99.90;;;;;;5032948;28;20184;-84
2023/08/07 05:35:41;;;;;;;0.10;0.10;;;15.20;99.90;;;;;;5049588;28;20971;-85
2023/08/07 05:38:07;;;;;;;0.10;0.10;;;15.30;99.90;;;;;;5063338;28;20182;-83
2023/08/07 05:40:35;;;;;;;0.10;0.10;;;15.30;99.90;;;;;;5029920;28;20196;-85
2023/08/07 05:43:01;;;;;;;0.10;0.10;;;15.20;99.90;;;;;;5033376;28;20638;-85
2023/08/07 05:45:26;;;;;;;0.10;0.10;;;15.30;99.90;;;;;;5044333;28;20506;-85
2023/08/07 05:47:52;;;;;;;0.10;0.10;;;15.40;99.90;;;;;;5075222;28;20230;-83
2023/08/07 05:50:17;;;;;;;0.10;0.10;;;15.40;99.90;;;;;;5048141;28;20219;-84
2023/08/07 05:52:43;;;;;;;0.10;0.10;;;15.40;99.90;;;;;;5068748;28;20174;-83
2023/08/07 05:55:09;;;;;;;0.10;0.10;;;15.40;99.90;;;;;;5056422;28;20554;-84
2023/08/07 05:57:35;;;;;;;0.10;0.10;;;15.30;99.90;;;;;;5044879;28;20183;-85
2023/08/07 06:00:01;;;;;;;0.10;0.10;;;15.40;99.90;;;;;;5044930;28;20577;-84
2023/08/07 06:02:26;;;;;;;0.10;0.10;;;15.40;99.90;;;;;;5038567;28;20449;-85
2023/08/07 06:04:52;;;;;;;0.10;0.10;;;15.40;99.90;;;;;;5044819;28;20441;-83
2023/08/07 06:07:18;;;;;;;0.10;0.10;;;15.50;99.90;;;;;;5058071;28;20425;-85
2023/08/07 06:09:43;;;;;;;0.10;0.10;;;15.40;99.90;;;;;;5055596;28;20479;-84
2023/08/07 06:12:09;;;;;;;0.10;0.10;;;15.50;99.90;;;;;;5048292;28;20270;-84
2023/08/07 06:14:34;;;;;;;0.10;0.10;;;15.60;99.90;;;;;;5038338;28;20198;-84
2023/08/07 06:17:01;;;;;;;0.10;0.10;;;15.60;99.90;;;;;;5031683;28;20195;-84
2023/08/07 06:19:27;;;;;;;0.10;0.10;;;15.70;99.90;;;;;;5038204;28;20543;-83
2023/08/07 06:21:53;;;;;;;0.10;0.10;;;15.60;99.90;;;;;;5055130;28;20449;-84
2023/08/07 06:24:19;;;;;;;0.10;0.10;;;15.70;99.90;;;;;;5041984;28;20210;-83
2023/08/07 06:26:45;;;;;;;0.10;0.10;;;15.80;99.90;;;;;;5057453;28;20441;-85
2023/08/07 06:29:10;;;;;;;0.10;0.10;;;15.80;99.90;;;;;;5041570;28;20194;-85
2023/08/07 06:31:36;;;;;;;0.10;0.10;;;15.80;99.90;;;;;;5033972;28;20201;-85
2023/08/07 06:34:01;;;;;;;0.10;0.10;;;15.80;99.90;;;;;;5041420;28;20183;-86
2023/08/07 06:36:27;;;;;;;0.10;0.10;;;15.90;99.90;;;;;;5041141;28;20183;-86
2023/08/07 06:38:53;;;;;;;0.10;0.10;;;15.80;99.90;;;;;;5042438;28;20200;-87
2023/08/07 06:41:18;;;;;;;0.10;0.10;;;15.90;99.90;;;;;;5055772;28;20194;-86
2023/08/07 06:43:44;;;;;;;0.10;0.10;;;15.90;99.90;;;;;;5045555;28;20205;-85
2023/08/07 06:46:11;;;;;;;0.10;0.10;;;15.90;99.90;;;;;;5037831;28;20175;-85
2023/08/07 06:48:36;;;;;;;0.10;0.10;;;15.80;99.90;;;;;;5037093;28;20222;-86
2023/08/07 06:51:02;;;;;;;0.10;0.10;;;15.90;99.90;;;;;;5044236;28;20476;-85
2023/08/07 06:53:27;;;;;;;0.10;0.10;;;16.00;99.90;;;;;;5049216;28;20277;-87
2023/08/07 06:55:53;;;;;;;0.10;0.10;;;16.10;99.90;;;;;;5048939;28;20194;-84
2023/08/07 06:58:19;;;;;;;0.10;0.10;;;15.90;99.90;;;;;;5053625;28;20218;-86
2023/08/07 07:00:45;;;;;;;0.10;0.10;;;15.90;99.90;;;;;;5041079;28;20287;-85
2023/08/07 07:03:11;;;;;;;0.10;0.10;;;16.00;99.90;;;;;;5050980;28;20236;-87
2023/08/07 07:05:37;;;;;;;0.10;0.10;;;16.00;99.90;;;;;;5057868;28;20449;-88
2023/08/07 07:08:03;;;;;;;0.10;0.10;;;16.10;99.90;;;;;;5062875;28;20472;-85
2023/08/07 07:10:28;;;;;;;0.10;0.10;;;16.10;99.90;;;;;;5071738;28;20214;-86
2023/08/07 07:12:55;;;;;;;0.10;0.10;;;16.00;99.90;;;;;;5043253;28;20517;-86
2023/08/07 07:15:20;;;;;;;0.10;0.10;;;16.20;99.90;;;;;;5045668;28;20621;-85
2023/08/07 07:17:46;;;;;;;0.10;0.10;;;16.20;99.90;;;;;;5031541;28;20469;-86
2023/08/07 07:20:11;;;;;;;0.10;0.10;;;16.20;99.90;;;;;;5047517;28;20186;-85
2023/08/07 07:22:37;;;;;;;0.10;0.10;;;16.20;99.90;;;;;;5058163;28;20187;-85
2023/08/07 07:25:04;;;;;;;0.10;0.10;;;16.30;99.90;;;;;;5039532;28;20190;-85
2023/08/07 07:27:30;;;;;;;0.10;0.10;;;16.40;99.90;;;;;;5043392;28;20212;-85
2023/08/07 07:29:55;;;;;;;0.10;0.10;;;16.20;99.90;;;;;;5047642;28;20486;-85
2023/08/07 07:32:21;;;;;;;0.10;0.10;;;16.30;99.90;;;;;;5042988;28;20183;-88
2023/08/07 07:34:46;;;;;;;0.10;0.10;;;16.30;99.90;;;;;;5073815;28;20549;-86
2023/08/07 07:37:14;;;;;;;0.10;0.10;;;16.20;99.90;;;;;;5038207;28;20222;-86
2023/08/07 07:39:39;;;;;;;0.10;0.10;;;16.20;99.90;;;;;;5043650;28;20234;-85
2023/08/07 07:42:06;;;;;;;0.10;0.10;;;16.20;99.90;;;;;;5041319;28;20470;-86
2023/08/07 07:44:33;;;;;;;0.10;0.10;;;16.10;99.90;;;;;;5042021;28;20258;-85
2023/08/07 07:46:58;;;;;;;0.10;0.10;;;16.00;99.90;;;;;;5044532;28;20798;-85
2023/08/07 07:49:24;;;;;;;0.10;0.10;;;15.90;99.90;;;;;;5040658;28;20477;-85
2023/08/07 07:51:49;;;;;;;0.10;0.10;;;16.00;99.90;;;;;;5045421;28;20662;-86
2023/08/07 07:54:15;;;;;;;0.10;0.10;;;16.10;99.90;;;;;;5043924;28;20562;-85
2023/08/07 07:56:42;;;;;;;0.10;0.10;;;16.20;99.90;;;;;;5042273;28;20321;-85
2023/08/07 07:59:08;;;;;;;0.10;0.10;;;16.30;99.90;;;;;;5041502;28;20189;-85
2023/08/07 08:01:33;;;;;;;0.10;0.10;;;16.20;99.90;;;;;;5038384;28;20805;-84
2023/08/07 08:03:59;;;;;;;0.10;0.10;;;16.40;99.90;;;;;;5036409;28;20608;-85
2023/08/07 08:06:24;;;;;;;0.10;0.10;;;16.50;99.90;;;;;;5043777;28;20190;-85
2023/08/07 08:08:50;;;;;;;0.10;0.10;;;16.60;99.90;;;;;;5040526;28;20183;-86
2023/08/07 08:11:15;;;;;;;0.10;0.10;;;16.60;99.90;;;;;;5045402;28;20246;-86
2023/08/07 08:13:41;;;;;;;0.10;0.10;;;16.80;99.90;;;;;;5050685;28;20619;-85
2023/08/07 08:16:07;;;;;;;0.10;0.10;;;16.80;99.90;;;;;;5038322;28;20206;-84
2023/08/07 08:18:32;;;;;;;0.10;0.10;;;16.80;99.90;;;;;;5041834;28;20212;-85
2023/08/07 08:20:58;;;;;;;0.10;0.10;;;16.90;99.90;;;;;;5036050;28;20441;-84
2023/08/07 08:23:23;;;;;;;0.10;0.10;;;16.90;99.90;;;;;;5044647;28;20218;-86
2023/08/07 08:25:49;;;;;;;0.10;0.10;;;17.00;99.90;;;;;;5040113;28;20206;-84
2023/08/07 08:28:15;;;;;;;0.10;0.10;;;17.00;99.90;;;;;;5046549;28;20554;-85
2023/08/07 08:30:41;;;;;;;0.10;0.10;;;17.00;99.90;;;;;;5040315;28;20582;-84
2023/08/07 08:33:09;;;;;;;0.10;0.10;;;16.90;99.90;;;;;;5040195;28;20179;-84
2023/08/07 08:35:34;;;;;;;0.10;0.10;;;17.00;99.90;;;;;;5040317;28;20448;-85
2023/08/07 08:38:01;;;;;;;0.10;0.10;;;16.90;99.90;;;;;;5043297;28;20476;-85
2023/08/07 08:40:26;;;;;;;0.10;0.10;;;16.90;99.90;;;;;;5058428;28;20442;-85
2023/08/07 08:42:57;;;;;;;0.10;0.10;;;16.90;99.90;;;;;;5037035;28;20864;-85
2023/08/07 08:45:25;;;;;;;0.10;0.10;;;16.90;99.90;;;;;;5036571;28;20245;-84
2023/08/07 08:47:54;;;;;;;0.10;0.10;;;16.90;99.90;;;;;;5043079;28;20887;-84
2023/08/07 08:50:20;;;;;;;0.10;0.10;;;16.90;99.90;;;;;;5072109;28;20477;-85
2023/08/07 08:52:46;;;;;;;0.10;0.10;;;17.00;99.90;;;;;;5041268;28;20456;-84
2023/08/07 08:55:13;;;;;;;0.10;0.10;;;17.10;99.90;;;;;;5043488;28;20453;-84
2023/08/07 08:57:39;;;;;;;0.10;0.10;;;17.20;99.90;;;;;;5049559;28;20187;-86
2023/08/07 09:00:17;;;;;;;0.10;0.10;;;17.20;99.90;;;;;;5038547;28;20832;-83
2023/08/07 09:02:50;;;;;;;0.10;0.10;;;17.00;99.90;;;;;;5064825;28;20545;-84
2023/08/07 09:05:22;;;;;;;0.10;0.10;;;17.20;99.90;;;;;;5061753;28;20434;-84
2023/08/07 09:07:49;;;;;;;0.10;0.10;;;17.20;99.90;;;;;;5042853;28;20498;-84
2023/08/07 09:10:16;;;;;;;0.10;0.10;;;17.30;99.90;;;;;;5068657;28;20555;-84
2023/08/07 09:12:46;;;;;;;0.10;0.10;;;17.20;99.90;;;;;;5070074;28;20950;-85
2023/08/07 09:15:15;;;;;;;0.10;0.10;;;17.40;99.90;;;;;;5044393;28;20976;-85
2023/08/07 09:17:43;;;;;;;0.10;0.10;;;17.30;99.90;;;;;;5037882;28;20454;-84
2023/08/07 09:20:13;;;;;;;0.10;0.10;;;17.20;99.90;;;;;;5048520;28;20499;-85
2023/08/07 09:22:40;;;;;;;0.10;0.10;;;17.20;99.90;;;;;;5059476;28;20953;-85
2023/08/07 09:25:06;;;;;;;0.10;0.10;;;17.00;99.90;;;;;;5035412;28;20446;-84
2023/08/07 09:27:31;;;;;;;0.10;0.10;;;16.90;99.90;;;;;;5027770;28;20439;-87
2023/08/07 09:29:58;;;;;;;0.10;0.10;;;16.80;99.90;;;;;;5049470;28;20500;-87
2023/08/07 09:32:24;;;;;;;0.10;0.10;;;17.00;99.90;;;;;;5039178;28;20270;-85
2023/08/07 09:34:51;;;;;;;0.10;0.10;;;17.00;99.90;;;;;;5040293;28;20520;-86
2023/08/07 09:37:17;;;;;;;0.10;0.10;;;17.10;99.90;;;;;;5047092;28;20440;-85
2023/08/07 09:39:42;;;;;;;0.10;0.10;;;17.30;99.90;;;;;;5044245;28;20461;-85
2023/08/07 09:42:16;;;;;;;0.10;0.10;;;17.20;99.90;;;;;;5046490;28;20195;-87
2023/08/07 09:44:43;;;;;;;0.10;0.10;;;17.20;99.90;;;;;;5034231;28;20214;-85
2023/08/07 09:47:16;;;;;;;0.10;0.10;;;17.10;99.90;;;;;;5042287;28;21268;-84
2023/08/07 09:49:43;;;;;;;0.10;0.10;;;17.00;99.90;;;;;;5048677;28;20483;-86
2023/08/07 09:52:10;;;;;;;0.10;0.10;;;16.90;99.90;;;;;;5047220;28;20827;-84
2023/08/07 09:54:36;;;;;;;0.10;0.10;;;16.70;99.90;;;;;;5046347;28;20441;-85
2023/08/07 09:57:02;;;;;;;0.10;0.10;;;16.70;99.90;;;;;;5034571;28;20445;-82
2023/08/07 09:59:29;;;;;;;0.10;0.10;;;16.50;99.90;;;;;;5071567;28;20574;-84
2023/08/07 10:01:55;;;;;;;0.10;0.10;;;16.70;99.90;;;;;;5048661;28;20448;-84
2023/08/07 10:04:24;;;;;;;0.10;0.10;;;16.90;99.90;;;;;;5039739;28;20929;-85
2023/08/07 10:06:51;;;;;;;0.10;0.10;;;17.00;99.90;;;;;;5040635;28;21949;-86
2023/08/07 10:09:16;;;;;;;0.10;0.10;;;16.80;99.90;;;;;;5074561;28;20441;-86
2023/08/07 10:11:42;;;;;;;0.10;0.10;;;16.70;99.90;;;;;;5040543;28;21294;-85
2023/08/07 10:14:15;;;;;;;0.10;0.10;;;16.90;99.90;;;;;;5041923;28;20241;-84
2023/08/07 10:16:41;;;;;;;0.10;0.10;;;17.30;99.90;;;;;;5045787;28;20185;-84
2023/08/07 10:19:08;;;;;;;0.10;0.10;;;17.80;99.90;;;;;;5043765;28;20445;-86
2023/08/07 10:21:40;;;;;;;0.10;0.10;;;17.70;99.90;;;;;;5058545;28;20944;-86
2023/08/07 10:24:08;;;;;;;0.10;0.10;;;18.40;99.90;;;;;;5041602;28;20456;-86
2023/08/07 10:26:37;;;;;;;0.10;0.10;;;19.30;99.90;;;;;;5045838;28;21009;-85
2023/08/07 10:29:06;;;;;;;0.10;0.10;;;18.70;99.90;;;;;;5049416;28;20857;-84
2023/08/07 10:31:33;;;;;;;0.10;0.10;;;18.50;99.90;;;;;;5054752;28;20471;-83
2023/08/07 10:33:59;;;;;;;0.10;0.10;;;19.20;99.90;;;;;;5033589;28;20449;-83
2023/08/07 10:36:32;;;;;;;0.10;0.10;;;19.70;99.90;;;;;;5039517;28;21085;-84
2023/08/07 10:39:11;;;;;;;0.10;0.00;;;19.30;99.90;;;;;;5039214;28;20855;-81
2023/08/07 10:41:46;;;;;;;0.10;0.10;;;18.80;99.90;;;;;;5050018;28;20499;-84
2023/08/07 10:44:19;;;;;;;0.10;0.10;;;18.30;99.90;;;;;;5052253;28;20539;-85
2023/08/07 10:46:49;;;;;;;0.10;0.10;;;18.40;99.90;;;;;;5065829;28;20966;-85
2023/08/07 10:49:38;;;;;;;0.10;0.10;;;18.60;99.90;;;;;;5071372;28;20467;-87
2023/08/07 10:52:08;;;;;;;0.10;0.10;;;18.40;99.90;;;;;;5050671;28;20449;-83
2023/08/07 10:54:48;;;;;;;0.10;0.00;;;18.70;99.90;;;;;;5053939;28;20478;-85
2023/08/07 10:57:15;;;;;;;0.10;0.00;;;19.60;99.90;;;;;;5048772;28;20429;-84
2023/08/07 10:59:55;;;;;;;0.10;0.00;;;19.70;99.90;;;;;;5051271;28;20479;-85
2023/08/07 11:02:26;;;;;;;0.10;0.00;;;19.20;99.90;;;;;;5052121;28;20535;-85
2023/08/07 11:04:53;;;;;;;0.10;0.10;;;19.70;99.90;;;;;;5047336;28;20972;-84
2023/08/07 11:07:27;;;;;;;0.10;0.00;;;19.20;99.90;;;;;;5048792;28;20433;-83
2023/08/07 11:09:53;;;;;;;0.10;0.00;;;19.40;99.90;;;;;;5039812;28;20477;-82
2023/08/07 11:12:19;;;;;;;0.10;0.10;;;19.00;99.90;;;;;;5036656;28;20464;-81
2023/08/07 11:14:45;;;;;;;0.10;0.00;;;19.50;99.90;;;;;;5048514;28;20936;-83
2023/08/07 11:17:12;;;;;;;0.10;0.00;;;19.30;99.90;;;;;;5051875;28;20444;-86
2023/08/07 11:19:38;;;;;;;0.10;0.00;;;18.90;99.90;;;;;;5063676;28;20186;-86
2023/08/07 11:22:04;;;;;;;0.10;0.00;;;18.50;99.90;;;;;;5046753;28;20452;-84
2023/08/07 11:24:29;;;;;;;0.10;0.00;;;19.40;99.90;;;;;;5056470;28;20923;-86
2023/08/07 11:26:57;;;;;;;0.10;0.00;;;19.80;99.90;;;;;;5053612;28;20436;-85
2023/08/07 11:29:24;;;;;;;0.10;0.00;;;19.40;99.90;;;;;;5060151;28;20236;-84
2023/08/07 11:31:51;;;;;;;0.10;0.00;;;19.40;99.90;;;;;;5036174;28;20441;-83
2023/08/07 11:34:19;;;;;;;0.10;0.10;;;19.90;99.90;;;;;;5048841;28;20448;-86
2023/08/07 11:36:45;;;;;;;0.10;0.00;;;19.40;99.90;;;;;;5044029;28;20450;-85
2023/08/07 11:39:12;;;;;;;0.10;0.00;;;19.60;99.90;;;;;;5042774;28;20779;-89
2023/08/07 11:41:38;;;;;;;0.10;0.00;;;19.60;99.90;;;;;;5048957;28;20445;-84
2023/08/07 11:44:03;;;;;;;0.10;0.00;;;19.90;99.90;;;;;;5048376;28;20849;-88
2023/08/07 11:46:29;;;;;;;0.10;0.00;;;19.50;99.90;;;;;;5046281;28;20182;-86
2023/08/07 11:48:56;;;;;;;0.10;0.00;;;19.20;99.90;;;;;;5042550;28;20225;-86
2023/08/07 11:51:23;;;;;;;0.10;0.00;;;19.60;99.90;;;;;;5033225;28;20992;-88
2023/08/07 11:53:49;;;;;;;0.10;0.00;;;20.10;99.90;;;;;;5031357;28;20449;-88
2023/08/07 11:56:14;;;;;;;0.10;0.00;;;19.40;99.90;;;;;;5043818;28;20448;-89
2023/08/07 11:58:45;;;;;;;0.10;0.00;;;19.20;99.90;;;;;;5053099;28;20215;-89
2023/08/07 12:01:26;;;;;;;0.10;0.00;;;19.20;99.90;;;;;;5041189;28;20556;-86
2023/08/07 12:04:07;;;;;;;0.10;0.00;;;19.70;99.90;;;;;;5047164;28;20464;-88
2023/08/07 12:06:35;;;;;;;0.10;0.00;;;19.90;99.90;;;;;;5047121;28;20519;-87
2023/08/07 12:09:01;;;;;;;0.10;0.00;;;19.70;99.90;;;;;;5038651;28;20934;-91
2023/08/07 12:11:29;;;;;;;0.10;0.00;;;19.20;99.90;;;;;;5063919;28;20481;-89
2023/08/07 12:13:55;;;;;;;0.10;0.00;;;18.80;99.90;;;;;;5047544;28;20494;-86
2023/08/07 12:16:20;;;;;;;0.10;0.00;;;18.50;99.90;;;;;;5037682;28;20446;-88
2023/08/07 12:18:48;;;;;;;0.10;0.00;;;18.10;99.90;;;;;;5047537;28;20966;-88
2023/08/07 12:21:23;;;;;;;0.10;0.00;;;18.60;99.90;;;;;;5050568;28;20175;-85
2023/08/07 12:23:50;;;;;;;0.10;0.00;;;19.00;99.90;;;;;;5050104;28;20443;-88
2023/08/07 12:26:16;;;;;;;0.10;0.10;;;19.50;99.90;;;;;;5045847;28;20469;-88
2023/08/07 12:28:42;;;;;;;0.10;0.00;;;20.00;99.90;;;;;;5045980;28;20499;-88
2023/08/07 12:31:07;;;;;;;0.10;0.00;;;20.60;99.90;;;;;;5046547;28;20496;-88
2023/08/07 12:33:33;;;;;;;0.10;0.00;;;21.20;99.90;;;;;;5048567;28;20479;-87
2023/08/07 12:35:59;;;;;;;0.10;0.00;;;21.30;99.90;;;;;;5047642;28;20222;-86
2023/08/07 12:38:25;;;;;;;0.10;0.00;;;20.20;99.90;;;;;;5062296;28;20182;-86
2023/08/07 12:40:51;;;;;;;0.10;0.00;;;19.40;99.90;;;;;;5034121;28;20455;-87
2023/08/07 12:43:17;;;;;;;0.10;0.00;;;18.80;99.90;;;;;;5063019;28;20466;-86
2023/08/07 12:45:43;;;;;;;0.10;0.00;;;18.60;99.90;;;;;;5038135;28;20458;-85